createdAt,value
2018-05-10T00:02:24.564Z,25.61
2018-05-10T00:04:50.700Z,25.60
2018-05-10T00:07:16.949Z,25.60
2018-05-10T00:09:43.076Z,25.58
2018-05-10T00:12:09.226Z,25.58
2018-05-10T00:14:35.514Z,25.56
2018-05-10T00:17:01.657Z,25.55
2018-05-10T00:19:27.793Z,25.54
2018-05-10T00:21:53.998Z,25.53
2018-05-10T00:24:20.145Z,25.52
2018-05-10T00:26:46.304Z,25.51
2018-05-10T00:29:12.469Z,25.50
2018-05-10T00:31:38.614Z,25.49
2018-05-10T00:34:04.826Z,25.48
2018-05-10T00:36:30.967Z,25.47
2018-05-10T00:38:57.100Z,25.46
2018-05-10T00:41:23.266Z,25.45
2018-05-10T00:43:49.437Z,25.44
2018-05-10T00:46:15.931Z,25.43
2018-05-10T00:48:42.075Z,25.42
2018-05-10T00:51:08.218Z,25.41
2018-05-10T00:53:34.493Z,25.39
2018-05-10T00:56:00.635Z,25.38
2018-05-10T00:58:26.767Z,25.38
2018-05-10T01:00:52.986Z,25.37
2018-05-10T01:03:19.355Z,25.36
2018-05-10T01:05:45.496Z,25.34
2018-05-10T01:08:11.657Z,25.33
2018-05-10T01:10:37.804Z,25.32
2018-05-10T01:13:04.246Z,25.31
2018-05-10T01:15:30.410Z,25.30
2018-05-10T01:17:56.549Z,25.29
2018-05-10T01:20:23.236Z,25.28
2018-05-10T01:22:49.449Z,25.27
2018-05-10T01:25:15.598Z,25.26
2018-05-10T01:27:41.759Z,25.25
2018-05-10T01:30:08.172Z,25.23
2018-05-10T01:32:34.309Z,25.22
2018-05-10T01:35:12.817Z,25.22
2018-05-10T01:37:38.954Z,25.21
2018-05-10T01:40:05.320Z,25.19
2018-05-10T01:42:32.123Z,25.19
2018-05-10T01:44:58.529Z,25.17
2018-05-10T01:47:24.670Z,25.17
2018-05-10T01:49:51.218Z,25.15
2018-05-10T01:52:17.590Z,25.15
2018-05-10T01:54:43.741Z,25.15
2018-05-10T01:57:09.918Z,25.14
2018-05-10T01:59:36.328Z,25.13
2018-05-10T02:02:02.498Z,25.12
2018-05-10T02:04:28.666Z,25.11
2018-05-10T02:06:54.804Z,25.11
2018-05-10T02:09:21.004Z,25.09
2018-05-10T02:11:47.151Z,25.08
2018-05-10T02:14:13.525Z,25.08
2018-05-10T02:16:40.035Z,25.07
2018-05-10T02:19:06.171Z,25.06
2018-05-10T02:21:32.301Z,25.05
2018-05-10T02:23:58.692Z,25.03
2018-05-10T02:26:24.838Z,25.03
2018-05-10T02:28:51.229Z,25.01
2018-05-10T02:31:18.034Z,25.01
2018-05-10T02:33:45.006Z,25.00
2018-05-10T02:36:11.228Z,24.99
2018-05-10T02:38:37.410Z,24.98
2018-05-10T02:41:03.700Z,24.97
2018-05-10T02:43:30.083Z,24.96
2018-05-10T02:45:56.280Z,24.96
2018-05-10T02:48:22.460Z,24.95
2018-05-10T02:50:48.600Z,24.94
2018-05-10T02:53:15.038Z,24.93
2018-05-10T02:55:41.203Z,24.93
2018-05-10T02:58:07.639Z,24.92
2018-05-10T03:00:33.804Z,24.92
2018-05-10T03:02:59.932Z,24.91
2018-05-10T03:05:26.508Z,24.91
2018-05-10T03:07:52.965Z,24.90
2018-05-10T03:10:19.114Z,24.89
2018-05-10T03:12:45.407Z,24.88
2018-05-10T03:15:11.546Z,24.87
2018-05-10T03:17:37.682Z,24.87
2018-05-10T03:20:03.845Z,24.87
2018-05-10T03:22:30.181Z,24.86
2018-05-10T03:24:56.587Z,24.85
2018-05-10T03:27:22.989Z,24.85
2018-05-10T03:29:49.361Z,24.84
2018-05-10T03:32:15.637Z,24.84
2018-05-10T03:34:41.773Z,24.83
2018-05-10T03:37:08.149Z,24.83
2018-05-10T03:39:34.547Z,24.83
2018-05-10T03:42:00.769Z,24.82
2018-05-10T03:44:26.940Z,24.83
2018-05-10T03:46:53.082Z,24.83
2018-05-10T03:49:19.543Z,24.82
2018-05-10T03:51:45.685Z,24.83
2018-05-10T03:54:12.131Z,24.83
2018-05-10T03:56:38.274Z,24.84
2018-05-10T03:59:04.411Z,24.85
2018-05-10T04:01:30.952Z,24.84
2018-05-10T04:04:09.565Z,24.85
2018-05-10T04:06:48.074Z,24.85
2018-05-10T04:09:26.562Z,24.86
2018-05-10T04:11:52.754Z,24.86
2018-05-10T04:14:18.886Z,24.87
2018-05-10T04:16:45.026Z,24.87
2018-05-10T04:19:11.192Z,24.88
2018-05-10T04:21:37.557Z,24.88
2018-05-10T04:24:04.157Z,24.89
2018-05-10T04:26:30.313Z,24.91
2018-05-10T04:28:56.452Z,24.92
2018-05-10T04:31:22.617Z,24.93
2018-05-10T04:33:49.216Z,24.94
2018-05-10T04:36:15.366Z,24.95
2018-05-10T04:38:41.555Z,24.96
2018-05-10T04:41:07.756Z,24.96
2018-05-10T04:43:34.201Z,24.97
2018-05-10T04:46:00.336Z,24.98
2018-05-10T04:48:26.621Z,24.99
2018-05-10T04:50:52.917Z,25.02
2018-05-10T04:53:19.154Z,25.04
2018-05-10T04:55:45.408Z,25.07
2018-05-10T04:58:11.581Z,25.09
2018-05-10T05:00:38.052Z,25.11
2018-05-10T05:03:04.210Z,25.13
2018-05-10T05:05:30.465Z,25.15
2018-05-10T05:07:56.714Z,25.18
2018-05-10T05:10:22.886Z,25.21
2018-05-10T05:12:49.085Z,25.22
2018-05-10T05:15:15.241Z,25.26
2018-05-10T05:17:41.378Z,25.28
2018-05-10T05:20:08.070Z,25.29
2018-05-10T05:22:34.315Z,25.29
2018-05-10T05:25:00.498Z,25.30
2018-05-10T05:27:26.659Z,25.32
2018-05-10T05:29:52.798Z,25.33
2018-05-10T05:32:19.079Z,25.34
2018-05-10T05:34:45.210Z,25.36
2018-05-10T05:37:11.350Z,25.38
2018-05-10T05:39:37.679Z,25.40
2018-05-10T05:42:04.057Z,25.43
2018-05-10T05:44:30.439Z,25.48
2018-05-10T05:46:56.833Z,25.55
2018-05-10T05:49:23.239Z,25.60
2018-05-10T05:51:49.404Z,25.67
2018-05-10T05:54:15.558Z,25.71
2018-05-10T05:56:41.825Z,25.76
2018-05-10T05:59:07.971Z,25.79
2018-05-10T06:01:34.125Z,25.81
2018-05-10T06:04:00.612Z,25.83
2018-05-10T06:06:26.974Z,25.85
2018-05-10T06:08:53.125Z,25.86
2018-05-10T06:11:19.437Z,25.88
2018-05-10T06:13:45.586Z,25.88
2018-05-10T06:16:11.858Z,25.90
2018-05-10T06:18:38.001Z,25.92
2018-05-10T06:21:04.370Z,25.95
2018-05-10T06:23:30.542Z,25.97
2018-05-10T06:25:56.681Z,25.99
2018-05-10T06:28:23.077Z,26.00
2018-05-10T06:30:49.588Z,26.03
2018-05-10T06:33:15.969Z,26.06
2018-05-10T06:35:42.142Z,26.08
2018-05-10T06:38:08.313Z,26.05
2018-05-10T06:40:34.685Z,26.07
2018-05-10T06:43:01.471Z,26.08
2018-05-10T06:45:27.609Z,26.09
2018-05-10T06:47:53.754Z,26.10
2018-05-10T06:50:20.628Z,26.13
2018-05-10T06:52:47.058Z,26.16
2018-05-10T06:55:13.485Z,26.20
2018-05-10T06:57:40.055Z,26.23
2018-05-10T07:00:06.457Z,26.25
2018-05-10T07:02:32.595Z,26.28
2018-05-10T07:04:58.757Z,26.32
2018-05-10T07:07:24.905Z,26.36
2018-05-10T07:09:51.262Z,26.35
2018-05-10T07:12:17.362Z,26.33
2018-05-10T07:14:43.497Z,26.31
2018-05-10T07:17:09.688Z,26.28
2018-05-10T07:19:35.837Z,26.25
2018-05-10T07:22:01.979Z,26.24
2018-05-10T07:24:28.429Z,26.25
2018-05-10T07:26:54.583Z,26.28
2018-05-10T07:29:20.731Z,26.34
2018-05-10T07:31:46.977Z,26.38
2018-05-10T07:34:13.126Z,26.40
2018-05-10T07:36:39.303Z,26.41
2018-05-10T07:39:05.444Z,26.45
2018-05-10T07:41:31.620Z,26.47
2018-05-10T07:43:57.858Z,26.49
2018-05-10T07:46:24.015Z,26.49
2018-05-10T07:48:50.157Z,26.47
2018-05-10T07:51:16.436Z,26.47
2018-05-10T07:53:42.813Z,26.51
2018-05-10T07:56:08.957Z,26.54
2018-05-10T07:58:35.121Z,26.56
2018-05-10T08:01:01.321Z,26.59
2018-05-10T08:03:27.605Z,26.61
2018-05-10T08:05:53.794Z,26.63
2018-05-10T08:08:20.170Z,26.63
2018-05-10T08:10:46.661Z,26.59
2018-05-10T08:13:12.857Z,26.55
2018-05-10T08:15:39.243Z,26.52
2018-05-10T08:18:05.386Z,26.51
2018-05-10T08:20:31.785Z,26.51
2018-05-10T08:22:57.970Z,26.53
2018-05-10T08:25:24.461Z,26.56
2018-05-10T08:27:50.590Z,26.59
2018-05-10T08:30:16.827Z,26.61
2018-05-10T08:32:42.934Z,26.63
2018-05-10T08:35:09.141Z,26.67
2018-05-10T08:37:35.275Z,26.71
2018-05-10T08:40:01.424Z,26.76
2018-05-10T08:42:27.632Z,26.81
2018-05-10T08:44:53.798Z,26.87
2018-05-10T08:47:20.185Z,26.94
2018-05-10T08:49:46.348Z,27.02
2018-05-10T08:52:12.498Z,27.09
2018-05-10T08:54:39.240Z,27.16
2018-05-10T08:57:05.398Z,27.22
2018-05-10T08:59:31.533Z,27.26
2018-05-10T09:01:57.708Z,27.30
2018-05-10T09:04:23.839Z,27.32
2018-05-10T09:06:50.104Z,27.33
2018-05-10T09:09:16.248Z,27.32
2018-05-10T09:11:42.654Z,27.32
2018-05-10T09:14:08.871Z,27.32
2018-05-10T09:16:35.121Z,27.33
2018-05-10T09:19:01.299Z,27.37
2018-05-10T09:21:27.450Z,27.42
2018-05-10T09:23:53.913Z,27.48
2018-05-10T09:26:20.060Z,27.53
2018-05-10T09:28:46.718Z,27.59
2018-05-10T09:31:12.864Z,27.60
2018-05-10T09:33:39.004Z,27.61
2018-05-10T09:36:05.566Z,27.61
2018-05-10T09:38:31.723Z,27.59
2018-05-10T09:40:58.101Z,27.58
2018-05-10T09:43:24.923Z,27.57
2018-05-10T09:45:51.060Z,27.56
2018-05-10T09:48:17.201Z,27.55
2018-05-10T09:50:43.409Z,27.54
2018-05-10T09:53:09.572Z,27.51
2018-05-10T09:55:35.751Z,27.46
2018-05-10T09:58:01.916Z,27.42
2018-05-10T10:00:29.006Z,27.42
2018-05-10T10:02:55.154Z,27.42
2018-05-10T10:05:21.294Z,27.45
2018-05-10T10:07:47.476Z,27.46
2018-05-10T10:10:13.684Z,27.47
2018-05-10T10:12:39.814Z,27.49
2018-05-10T10:15:05.969Z,27.51
2018-05-10T10:17:32.267Z,27.53
2018-05-10T10:19:58.454Z,27.54
2018-05-10T10:22:24.621Z,27.52
2018-05-10T10:24:50.790Z,27.50
2018-05-10T10:27:16.991Z,27.49
2018-05-10T10:29:43.608Z,27.49
2018-05-10T10:32:09.757Z,27.53
2018-05-10T10:34:36.125Z,27.63
2018-05-10T10:37:02.304Z,27.73
2018-05-10T10:39:28.487Z,27.79
2018-05-10T10:41:54.630Z,27.84
2018-05-10T10:44:21.184Z,27.86
2018-05-10T10:46:47.330Z,27.88
2018-05-10T10:49:13.471Z,27.89
2018-05-10T10:51:40.073Z,27.86
2018-05-10T10:54:06.220Z,27.80
2018-05-10T10:56:32.374Z,27.78
2018-05-10T10:58:58.564Z,27.81
2018-05-10T11:01:24.726Z,27.85
2018-05-10T11:03:51.108Z,27.96
2018-05-10T11:06:17.386Z,28.09
2018-05-10T11:08:43.532Z,28.09
2018-05-10T11:11:09.678Z,28.09
2018-05-10T11:13:36.428Z,28.06
2018-05-10T11:16:02.565Z,27.99
2018-05-10T11:18:28.794Z,27.92
2018-05-10T11:20:55.050Z,27.87
2018-05-10T11:23:21.153Z,27.90
2018-05-10T11:25:47.331Z,27.99
2018-05-10T11:28:13.493Z,28.05
2018-05-10T11:30:39.686Z,28.11
2018-05-10T11:33:05.903Z,28.12
2018-05-10T11:35:32.025Z,28.08
2018-05-10T11:37:58.193Z,28.10
2018-05-10T11:40:24.353Z,28.06
2018-05-10T11:42:50.542Z,28.08
2018-05-10T11:45:17.132Z,28.09
2018-05-10T11:47:43.273Z,28.09
2018-05-10T11:50:09.426Z,28.10
2018-05-10T11:52:36.257Z,28.11
2018-05-10T11:55:02.422Z,28.12
2018-05-10T11:57:28.565Z,28.13
2018-05-10T11:59:54.782Z,28.13
2018-05-10T12:02:20.939Z,28.14
2018-05-10T12:04:47.167Z,28.16
2018-05-10T12:07:13.332Z,28.18
2018-05-10T12:09:39.477Z,28.22
2018-05-10T12:12:06.158Z,28.26
2018-05-10T12:14:32.302Z,28.31
2018-05-10T12:16:58.450Z,28.36
2018-05-10T12:19:24.662Z,28.40
2018-05-10T12:21:50.804Z,28.44
2018-05-10T12:24:16.946Z,28.47
2018-05-10T12:26:43.122Z,28.50
2018-05-10T12:29:09.304Z,28.53
2018-05-10T12:31:35.573Z,28.58
2018-05-10T12:34:01.721Z,28.63
2018-05-10T12:36:27.881Z,28.67
2018-05-10T12:38:54.053Z,28.73
2018-05-10T12:41:20.642Z,28.78
2018-05-10T12:43:46.807Z,28.83
2018-05-10T12:46:12.952Z,28.88
2018-05-10T12:48:39.206Z,28.84
2018-05-10T12:51:05.342Z,28.80
2018-05-10T12:53:31.486Z,28.75
2018-05-10T12:55:58.040Z,28.71
2018-05-10T12:58:24.179Z,28.67
2018-05-10T13:00:50.409Z,28.64
2018-05-10T13:03:16.527Z,28.62
2018-05-10T13:05:42.778Z,28.62
2018-05-10T13:08:09.199Z,28.62
2018-05-10T13:10:35.348Z,28.64
2018-05-10T13:13:01.529Z,28.65
2018-05-10T13:15:27.948Z,28.65
2018-05-10T13:17:54.082Z,28.67
2018-05-10T13:20:20.309Z,28.68
2018-05-10T13:22:46.481Z,28.68
2018-05-10T13:25:12.626Z,28.70
2018-05-10T13:27:39.416Z,28.75
2018-05-10T13:30:05.566Z,28.78
2018-05-10T13:32:31.846Z,28.80
2018-05-10T13:34:58.251Z,28.82
2018-05-10T13:37:24.418Z,28.85
2018-05-10T13:39:50.934Z,28.89
2018-05-10T13:42:17.317Z,28.92
2018-05-10T13:44:43.493Z,28.96
2018-05-10T13:47:09.976Z,29.02
2018-05-10T13:49:36.744Z,29.07
2018-05-10T13:52:02.898Z,29.14
2018-05-10T13:54:29.272Z,29.23
2018-05-10T13:56:55.477Z,29.29
2018-05-10T13:59:21.626Z,29.37
2018-05-10T14:01:48.007Z,29.36
2018-05-10T14:04:14.199Z,29.35
2018-05-10T14:06:40.435Z,29.37
2018-05-10T14:09:06.898Z,29.37
2018-05-10T14:11:33.073Z,29.29
2018-05-10T14:13:59.208Z,29.15
2018-05-10T14:16:25.675Z,29.05
2018-05-10T14:18:51.834Z,29.02
2018-05-10T14:21:18.256Z,28.90
2018-05-10T14:23:44.405Z,28.84
2018-05-10T14:26:10.560Z,28.78
2018-05-10T14:28:37.038Z,28.69
2018-05-10T14:31:03.261Z,28.66
2018-05-10T14:33:29.445Z,28.66
2018-05-10T14:35:55.585Z,28.58
2018-05-10T14:38:21.754Z,28.45
2018-05-10T14:40:47.890Z,28.34
2018-05-10T14:43:14.298Z,28.28
2018-05-10T14:45:40.485Z,28.19
2018-05-10T14:48:06.725Z,28.06
2018-05-10T14:50:32.877Z,27.91
2018-05-10T14:52:59.079Z,27.76
2018-05-10T14:55:25.216Z,27.60
2018-05-10T14:57:51.448Z,27.48
2018-05-10T15:00:17.641Z,27.35
2018-05-10T15:02:43.909Z,27.21
2018-05-10T15:05:10.055Z,27.09
2018-05-10T15:07:36.191Z,26.99
2018-05-10T15:10:02.386Z,26.88
2018-05-10T15:12:28.538Z,26.79
2018-05-10T15:14:54.700Z,26.70
2018-05-10T15:17:20.908Z,26.61
2018-05-10T15:19:47.054Z,26.51
2018-05-10T15:22:13.242Z,26.42
2018-05-10T15:24:39.398Z,26.33
2018-05-10T15:27:05.628Z,26.26
2018-05-10T15:29:31.765Z,26.21
2018-05-10T15:31:57.966Z,26.18
2018-05-10T15:34:24.861Z,26.18
2018-05-10T15:36:51.023Z,26.17
2018-05-10T15:39:17.164Z,26.14
2018-05-10T15:41:43.332Z,26.12
2018-05-10T15:44:09.723Z,26.09
2018-05-10T15:49:08.854Z,26.05
2018-05-10T15:51:35.022Z,26.09
2018-05-10T15:54:01.162Z,26.10
2018-05-10T15:56:27.471Z,26.31
2018-05-10T15:58:53.613Z,26.38
2018-05-10T16:01:19.749Z,26.47
2018-05-10T16:03:46.326Z,26.55
2018-05-10T16:06:12.474Z,26.62
2018-05-10T16:08:38.619Z,26.76
2018-05-10T16:11:05.069Z,26.74
2018-05-10T16:13:32.177Z,26.53
2018-05-10T16:15:58.654Z,26.31
2018-05-10T16:18:24.798Z,26.14
2018-05-10T16:20:50.962Z,25.99
2018-05-10T16:23:17.097Z,25.90
2018-05-10T16:25:43.236Z,25.81
2018-05-10T16:28:09.396Z,25.75
2018-05-10T16:30:36.370Z,25.73
2018-05-10T16:33:02.501Z,25.76
2018-05-10T16:35:28.645Z,25.83
2018-05-10T16:37:55.212Z,25.92
2018-05-10T16:40:21.341Z,25.90
2018-05-10T16:42:47.479Z,25.79
2018-05-10T16:45:13.743Z,25.68
2018-05-10T16:47:39.882Z,25.57
2018-05-10T16:50:06.024Z,25.47
2018-05-10T16:52:32.585Z,25.38
2018-05-10T16:54:58.733Z,25.31
2018-05-10T16:57:24.941Z,25.27
2018-05-10T16:59:51.777Z,25.26
2018-05-10T17:02:17.905Z,25.25
2018-05-10T17:04:44.042Z,25.23
2018-05-10T17:07:10.214Z,25.19
2018-05-10T17:09:36.369Z,25.13
2018-05-10T17:12:02.536Z,25.10
2018-05-10T17:14:28.760Z,25.08
2018-05-10T17:16:54.924Z,25.14
2018-05-10T17:19:21.161Z,25.31
2018-05-10T17:21:47.364Z,25.78
2018-05-10T17:24:13.550Z,26.41
2018-05-10T17:26:40.088Z,27.09
2018-05-10T17:29:06.232Z,27.62
2018-05-10T17:31:32.505Z,27.99
2018-05-10T17:33:58.751Z,28.18
2018-05-10T17:36:24.899Z,28.19
2018-05-10T17:38:51.085Z,27.91
2018-05-10T17:41:17.229Z,27.47
2018-05-10T17:43:43.532Z,27.08
2018-05-10T17:46:09.676Z,26.79
2018-05-10T17:48:35.829Z,26.61
2018-05-10T17:51:02.151Z,26.46
2018-05-10T17:53:28.592Z,26.29
2018-05-10T17:55:54.724Z,26.14
2018-05-10T17:58:20.901Z,25.99
2018-05-10T18:00:47.211Z,25.84
2018-05-10T18:03:13.590Z,25.71
2018-05-10T18:05:39.721Z,25.58
2018-05-10T18:08:06.301Z,25.49
2018-05-10T18:10:32.518Z,25.41
2018-05-10T18:12:58.685Z,25.33
2018-05-10T18:15:24.846Z,25.26
2018-05-10T18:17:51.391Z,25.21
2018-05-10T18:20:17.760Z,25.15
2018-05-10T18:22:43.892Z,25.09
2018-05-10T18:25:10.053Z,25.03
2018-05-10T18:27:36.217Z,24.99
2018-05-10T18:30:02.506Z,24.94
2018-05-10T18:32:28.666Z,24.88
2018-05-10T18:34:54.788Z,24.82
2018-05-10T18:37:21.057Z,24.76
2018-05-10T18:39:47.205Z,24.71
2018-05-10T18:42:13.349Z,24.65
2018-05-10T18:44:39.514Z,24.58
2018-05-10T18:47:05.662Z,24.52
2018-05-10T18:49:32.187Z,24.47
2018-05-10T18:51:58.324Z,24.42
2018-05-10T18:54:24.469Z,24.37
2018-05-10T18:56:50.933Z,24.32
2018-05-10T18:59:17.061Z,24.29
2018-05-10T19:01:43.274Z,24.26
2018-05-10T19:04:09.720Z,24.24
2018-05-10T19:06:35.858Z,24.21
2018-05-10T19:09:02.031Z,24.17
2018-05-10T19:11:28.300Z,24.15
2018-05-10T19:13:54.440Z,24.12
2018-05-10T19:16:20.581Z,24.10
2018-05-10T19:18:46.992Z,24.07
2018-05-10T19:21:13.128Z,24.03
2018-05-10T19:23:39.405Z,24.02
2018-05-10T19:26:05.565Z,23.99
2018-05-10T19:28:31.869Z,23.97
2018-05-10T19:30:58.040Z,23.95
2018-05-10T19:33:24.177Z,23.93
2018-05-10T19:35:50.754Z,23.92
2018-05-10T19:38:16.898Z,23.90
2018-05-10T19:40:43.269Z,23.88
2018-05-10T19:43:09.455Z,23.86
2018-05-10T19:45:42.590Z,23.84
2018-05-10T19:48:08.758Z,23.82
2018-05-10T19:50:34.907Z,23.81
2018-05-10T19:53:01.176Z,23.80
2018-05-10T19:55:27.308Z,23.78
2018-05-10T19:57:53.441Z,23.76
2018-05-10T20:00:19.674Z,23.74
2018-05-10T20:02:45.808Z,23.73
2018-05-10T20:05:11.949Z,23.70
2018-05-10T20:07:38.109Z,23.68
2018-05-10T20:10:04.355Z,23.67
2018-05-10T20:12:30.559Z,23.67
2018-05-10T20:14:56.660Z,23.66
2018-05-10T20:17:22.834Z,23.65
2018-05-10T20:19:49.205Z,23.64
2018-05-10T20:22:15.392Z,23.62
2018-05-10T20:24:41.540Z,23.60
2018-05-10T20:27:07.711Z,23.59
2018-05-10T20:29:33.898Z,23.58
2018-05-10T20:32:00.079Z,23.56
2018-05-10T20:34:26.227Z,23.55
2018-05-10T20:36:52.365Z,23.54
2018-05-10T20:39:18.549Z,23.52
2018-05-10T20:41:44.690Z,23.51
2018-05-10T20:44:10.814Z,23.52
2018-05-10T20:46:36.972Z,23.51
2018-05-10T20:49:03.104Z,23.49
2018-05-10T20:51:29.266Z,23.48
2018-05-10T20:53:55.721Z,23.48
2018-05-10T20:56:22.284Z,23.48
2018-05-10T20:58:48.412Z,23.48
2018-05-10T21:01:14.559Z,23.48
2018-05-10T21:03:40.784Z,23.46
2018-05-10T21:06:06.894Z,23.44
2018-05-10T21:08:33.174Z,23.43
2018-05-10T21:10:59.312Z,23.43
2018-05-10T21:13:25.694Z,23.41
2018-05-10T21:18:17.861Z,23.39
2018-05-10T21:20:43.986Z,23.39
2018-05-10T21:23:10.569Z,23.39
2018-05-10T21:25:36.687Z,23.37
2018-05-10T21:28:02.825Z,23.37
2018-05-10T21:30:29.045Z,23.37
2018-05-10T21:32:55.183Z,23.38
2018-05-10T21:35:21.322Z,23.38
2018-05-10T21:37:47.512Z,23.38
2018-05-10T21:40:13.653Z,23.38
2018-05-10T21:42:39.785Z,23.38
2018-05-10T21:45:06.345Z,23.37
2018-05-10T21:47:32.477Z,23.36
2018-05-10T21:50:01.578Z,23.36
2018-05-10T21:52:27.761Z,23.35
2018-05-10T21:54:53.974Z,23.36
2018-05-10T21:57:20.443Z,23.35
2018-05-10T21:59:46.582Z,23.35
2018-05-10T22:02:12.805Z,23.34
2018-05-10T22:04:38.977Z,23.33
2018-05-10T22:07:05.186Z,23.33
2018-05-10T22:09:31.357Z,23.32
2018-05-10T22:11:57.489Z,23.33
2018-05-10T22:14:23.831Z,23.32
2018-05-10T22:16:49.969Z,23.31
2018-05-10T22:19:16.109Z,23.31
2018-05-10T22:21:42.270Z,23.30
2018-05-10T22:24:08.533Z,23.29
2018-05-10T22:26:34.747Z,23.30
2018-05-10T22:29:01.052Z,23.29
2018-05-10T22:31:27.373Z,23.28
2018-05-10T22:33:53.518Z,23.27
2018-05-10T22:36:20.097Z,23.27
2018-05-10T22:38:46.237Z,23.27
2018-05-10T22:41:12.374Z,23.27
2018-05-10T22:43:38.958Z,23.26
2018-05-10T22:46:05.092Z,23.25
2018-05-10T22:48:31.241Z,23.24
2018-05-10T22:50:57.434Z,23.25
2018-05-10T22:53:23.605Z,23.25
2018-05-10T22:55:49.759Z,23.24
2018-05-10T22:58:15.938Z,23.23
2018-05-10T23:00:42.086Z,23.22
2018-05-10T23:03:08.619Z,23.21
2018-05-10T23:05:34.861Z,23.21
2018-05-10T23:08:01.004Z,23.19
2018-05-10T23:10:27.617Z,23.18
2018-05-10T23:12:53.840Z,23.18
2018-05-10T23:15:19.990Z,23.16
2018-05-10T23:17:46.157Z,23.16
2018-05-10T23:20:19.292Z,23.16
2018-05-10T23:22:45.461Z,23.14
2018-05-10T23:25:11.593Z,23.14
2018-05-10T23:27:37.886Z,23.14
2018-05-10T23:30:04.038Z,23.13
2018-05-10T23:32:30.248Z,23.13
2018-05-10T23:34:56.416Z,23.09
2018-05-10T23:37:22.939Z,23.08
2018-05-10T23:39:49.218Z,23.08
2018-05-10T23:42:15.363Z,23.08
2018-05-10T23:44:41.522Z,23.07
2018-05-10T23:47:07.714Z,23.07
2018-05-10T23:49:33.857Z,23.06
2018-05-10T23:51:59.997Z,23.07
2018-05-10T23:54:26.170Z,23.07
2018-05-10T23:56:52.304Z,23.06
2018-05-10T23:59:18.465Z,23.07
